Tallapoosa, Georgia
Current Conditions -  °F | °C
As of 12:35 AM on Sunday 21 Dec 2014 (Local Time) from KCTJ Reporting Station
Overcast Overcast  
Wind Chill: 45°   Ceiling: 1000
Heat Index: 45°   Visibility: 7mi
Dew Point: 45°   Wind: 0mph
Humidity: 100%   Direction: NA
Pressure: 30.22"   Gusts: NA
Location:  33.74°N, 85.29°W
Report Text: KCTJ 210535Z AUTO 00000KT 7SM OVC010 07/07 A3022 RMK AO2
Loading
Personal Weather Stations






























Interactive Weather Map New forecast layout! Learn more

10-Day Weather Forecast

Advertisements
Track Severe Weather on mobile